Schiphol

Tweets about a recent trend: Schiphol

RT @UAVPILOT07: A beautiful sunrise at #Amsterdam Schiphol while this Queen completes her flight !! #B747 #Aviation #avgeek https://t.co/DkLKPKl5I5
RT @UAVPILOT07: A beautiful sunrise at #Amsterdam Schiphol while this Queen completes her flight !! #B747 #Aviation #avgeek https://t.co/DkLKPKl5I5
RT @UAVPILOT07: A beautiful sunrise at #Amsterdam Schiphol while this Queen completes her flight !! #B747 #Aviation #avgeek https://t.co/DkLKPKl5I5
RT @UAVPILOT07: A beautiful sunrise at #Amsterdam Schiphol while this Queen completes her flight !! #B747 #Aviation #avgeek https://t.co/DkLKPKl5I5
#EHAM 150225Z 20011KT 1800 DZ BR SCT002 OVC003 09/08 Q1023 TEMPO 1400 BKN002 #AMSTERDAM #SCHIPHOL #WEER November 15, 2016 at 03:45AM
RT @UAVPILOT07: A beautiful sunrise at #Amsterdam Schiphol while this Queen completes her flight !! #B747 #Aviation #avgeek https://t.co/DkLKPKl5I5
(まちなみ逍遥フォトギャラリー) スキポール空港 ・アムステルダム中央駅へ / Schiphol Airport to Station Amsterdam Centraal https://t.co/3yQ0tHUfp9 https://t.co/yoYN0f0BJX
Must say #Schiphol airport one of the best airports in the world #emirates #A380. Take a bow @Iamsterdam @Schiphol
RT @UAVPILOT07: A beautiful sunrise at #Amsterdam Schiphol while this Queen completes her flight !! #B747 #Aviation #avgeek https://t.co/DkLKPKl5I5
RT @UAVPILOT07: A beautiful sunrise at #Amsterdam Schiphol while this Queen completes her flight !! #B747 #Aviation #avgeek https://t.co/DkLKPKl5I5
RT @UAVPILOT07: A beautiful sunrise at #Amsterdam Schiphol while this Queen completes her flight !! #B747 #Aviation #avgeek https://t.co/DkLKPKl5I5
#EHAM 150155Z 21011KT 1600 DZ BR SCT002 OVC003 08/08 Q1023 TEMPO 1400 BKN002 #AMSTERDAM #SCHIPHOL #WEER November 15, 2016 at 03:15AM
RT @UAVPILOT07: A beautiful sunrise at #Amsterdam Schiphol while this Queen completes her flight !! #B747 #Aviation #avgeek https://t.co/DkLKPKl5I5
RT @UAVPILOT07: A beautiful sunrise at #Amsterdam Schiphol while this Queen completes her flight !! #B747 #Aviation #avgeek https://t.co/DkLKPKl5I5
A beautiful sunrise at #Amsterdam Schiphol while this Queen completes her flight !! #B747 #Aviation #avgeek https://t.co/DkLKPKl5I5
RT @Aviation_Plaza: KLM B747-400 taking off at Amsterdam Schiphol Airport. (Photo by Ramon Kok) #aviation #avgeek https://t.co/z16rZXvruc
#EHAM 150125Z 20011KT 1700 -DZ BR SCT002 OVC003 08/08 Q1023 TEMPO 1400 BKN002 #AMSTERDAM #SCHIPHOL #WEER November 15, 2016 at 02:45AM